createdAt,value
2024-02-15T00:00:23.858Z,101194.34
2024-02-15T00:02:51.277Z,101193.50
2024-02-15T00:05:18.626Z,101179.13
2024-02-15T00:07:45.917Z,101186.16
2024-02-15T00:10:13.228Z,101188.22
2024-02-15T00:12:41.010Z,101194.09
2024-02-15T00:15:08.522Z,101192.50
2024-02-15T00:17:37.098Z,101198.28
2024-02-15T00:20:10.868Z,101189.22
2024-02-15T00:22:38.401Z,101206.00
2024-02-15T00:25:07.058Z,101192.34
2024-02-15T00:27:35.992Z,101189.41
2024-02-15T00:30:04.074Z,101181.59
2024-02-15T00:32:35.050Z,101187.50
2024-02-15T00:35:02.889Z,101172.63
2024-02-15T00:37:31.329Z,101178.75
2024-02-15T00:39:58.730Z,101175.81
2024-02-15T00:42:27.077Z,101161.25
2024-02-15T00:44:54.427Z,101170.13
2024-02-15T00:47:22.299Z,101168.59
2024-02-15T00:49:51.441Z,101166.22
2024-02-15T00:52:20.052Z,101164.75
2024-02-15T00:54:47.573Z,101168.13
2024-02-15T00:57:14.926Z,101172.63
2024-02-15T00:59:42.358Z,101167.09
2024-02-15T01:02:09.622Z,101161.31
2024-02-15T01:04:36.998Z,101163.63
2024-02-15T01:07:04.507Z,101167.25
2024-02-15T01:09:31.969Z,101162.34
2024-02-15T01:11:59.814Z,101159.97
2024-02-15T01:14:31.250Z,101162.78
2024-02-15T01:16:58.831Z,101157.41
2024-02-15T01:19:26.173Z,101157.47
2024-02-15T01:21:54.807Z,101164.63
2024-02-15T01:24:22.249Z,101156.78
2024-02-15T01:26:50.713Z,101155.69
2024-02-15T01:29:18.028Z,101151.59
2024-02-15T01:31:45.841Z,101152.09
2024-02-15T01:34:13.244Z,101173.88
2024-02-15T01:36:40.549Z,101166.16
2024-02-15T01:39:08.811Z,101154.63
2024-02-15T01:41:36.342Z,101159.44
2024-02-15T01:44:04.069Z,101161.66
2024-02-15T01:46:31.510Z,101154.19
2024-02-15T01:48:58.999Z,101155.50
2024-02-15T01:51:28.048Z,101157.16
2024-02-15T01:53:56.387Z,101158.88
2024-02-15T01:56:24.936Z,101163.34
2024-02-15T01:58:52.726Z,101153.63
2024-02-15T02:01:22.342Z,101152.38
2024-02-15T02:03:49.731Z,101164.13
2024-02-15T02:06:17.341Z,101158.25
2024-02-15T02:08:44.740Z,101157.81
2024-02-15T02:11:12.288Z,101162.78
2024-02-15T02:13:39.556Z,101158.38
2024-02-15T02:16:25.162Z,101163.09
2024-02-15T02:18:52.624Z,101161.00
2024-02-15T02:21:20.002Z,101169.28
2024-02-15T02:23:51.148Z,101165.59
2024-02-15T02:26:18.419Z,101171.81
2024-02-15T02:28:45.845Z,101172.91
2024-02-15T02:31:13.111Z,101187.09
2024-02-15T02:33:40.656Z,101167.50
2024-02-15T02:36:13.371Z,101172.28
2024-02-15T02:38:41.361Z,101171.31
2024-02-15T02:41:08.645Z,101168.91
2024-02-15T02:43:36.177Z,101164.13
2024-02-15T02:46:06.017Z,101178.34
2024-02-15T02:48:33.611Z,101172.63
2024-02-15T02:51:01.047Z,101176.28
2024-02-15T02:53:28.390Z,101173.44
2024-02-15T02:55:57.381Z,101178.16
2024-02-15T02:58:24.964Z,101169.03
2024-02-15T03:00:53.136Z,101168.59
2024-02-15T03:03:20.460Z,101179.56
2024-02-15T03:05:47.876Z,101180.06
2024-02-15T03:08:15.621Z,101175.00
2024-02-15T03:10:44.110Z,101181.81
2024-02-15T03:13:11.488Z,101174.16
2024-02-15T03:15:38.970Z,101178.28
2024-02-15T03:18:08.512Z,101184.03
2024-02-15T03:20:38.341Z,101189.09
2024-02-15T03:23:05.710Z,101189.44
2024-02-15T03:25:35.844Z,101189.59
2024-02-15T03:28:04.409Z,101193.13
2024-02-15T03:30:32.771Z,101194.13
2024-02-15T03:33:00.357Z,101194.56
2024-02-15T03:35:30.135Z,101207.97
2024-02-15T03:37:57.715Z,101199.03
2024-02-15T03:40:27.988Z,101200.09
2024-02-15T03:42:55.532Z,101197.53
2024-02-15T03:45:27.220Z,101202.94
2024-02-15T03:47:55.981Z,101202.56
2024-02-15T03:50:24.673Z,101192.00
2024-02-15T03:52:52.412Z,101203.00
2024-02-15T03:55:20.031Z,101192.84
2024-02-15T03:57:48.024Z,101202.25
2024-02-15T04:00:22.272Z,101205.44
2024-02-15T04:02:51.107Z,101211.78
2024-02-15T04:05:20.315Z,101210.81
2024-02-15T04:07:48.069Z,101206.88
2024-02-15T04:10:15.519Z,101214.16
2024-02-15T04:12:54.929Z,101213.25
2024-02-15T04:15:22.474Z,101226.84
2024-02-15T04:17:54.525Z,101204.31
2024-02-15T04:20:22.618Z,101214.75
2024-02-15T04:22:51.491Z,101219.34
2024-02-15T04:25:21.378Z,101217.50
2024-02-15T04:27:49.125Z,101216.47
2024-02-15T04:30:19.564Z,101208.66
2024-02-15T04:32:49.377Z,101225.72
2024-02-15T04:35:16.857Z,101212.22
2024-02-15T04:37:44.205Z,101216.19
2024-02-15T04:40:12.717Z,101228.25
2024-02-15T04:42:42.285Z,101218.13
2024-02-15T04:45:11.826Z,101210.84
2024-02-15T04:47:53.918Z,101209.88
2024-02-15T04:50:22.252Z,101217.50
2024-02-15T04:52:51.228Z,101217.13
2024-02-15T04:55:19.463Z,101215.31
2024-02-15T04:57:50.478Z,101210.31
2024-02-15T05:00:22.393Z,101215.31
2024-02-15T05:02:51.033Z,101205.44
2024-02-15T05:05:19.204Z,101211.56
2024-02-15T05:07:46.514Z,101223.25
2024-02-15T05:10:14.191Z,101224.66
2024-02-15T05:12:41.884Z,101226.44
2024-02-15T05:15:13.770Z,101227.81
2024-02-15T05:17:45.161Z,101237.22
2024-02-15T05:20:14.955Z,101235.91
2024-02-15T05:22:50.958Z,101256.25
2024-02-15T05:25:27.730Z,101248.09
2024-02-15T05:27:56.444Z,101249.00
2024-02-15T05:30:24.953Z,101260.19
2024-02-15T05:32:54.867Z,101263.00
2024-02-15T05:35:22.993Z,101275.47
2024-02-15T05:37:50.383Z,101267.44
2024-02-15T05:40:19.022Z,101273.03
2024-02-15T05:42:47.366Z,101270.72
2024-02-15T05:45:26.954Z,101286.34
2024-02-15T05:47:54.910Z,101282.22
2024-02-15T05:50:22.855Z,101286.78
2024-02-15T05:52:50.412Z,101298.31
2024-02-15T05:55:18.558Z,101289.97
2024-02-15T05:57:46.422Z,101299.63
2024-02-15T06:00:21.742Z,101301.34
2024-02-15T06:02:51.654Z,101303.56
2024-02-15T06:05:19.979Z,101307.06
2024-02-15T06:07:48.280Z,101307.50
2024-02-15T06:10:16.531Z,101308.53
2024-02-15T06:12:44.549Z,101309.16
2024-02-15T06:15:17.188Z,101307.97
2024-02-15T06:17:48.749Z,101307.97
2024-02-15T06:20:19.531Z,101305.28
2024-02-15T06:23:07.480Z,101305.91
2024-02-15T06:25:36.210Z,101314.25
2024-02-15T06:28:14.313Z,101309.72
2024-02-15T06:31:00.385Z,101319.41
2024-02-15T06:33:46.137Z,101314.50
2024-02-15T06:36:32.195Z,101318.25
2024-02-15T06:39:18.022Z,101313.91
2024-02-15T06:41:45.371Z,101318.94
2024-02-15T06:44:13.273Z,101316.88
2024-02-15T06:46:40.679Z,101322.13
2024-02-15T06:49:08.204Z,101317.84
2024-02-15T06:51:35.652Z,101319.56
2024-02-15T06:54:04.432Z,101313.53
2024-02-15T06:56:32.084Z,101326.22
2024-02-15T06:58:59.984Z,101332.69
2024-02-15T07:01:27.409Z,101328.91
2024-02-15T07:03:57.657Z,101325.31
2024-02-15T07:06:28.818Z,101328.41
2024-02-15T07:08:58.085Z,101324.25
2024-02-15T07:11:25.479Z,101324.84
2024-02-15T07:13:56.165Z,101330.41
2024-02-15T07:16:23.786Z,101323.00
2024-02-15T07:18:51.621Z,101334.22
2024-02-15T07:21:22.457Z,101323.44
2024-02-15T07:23:49.874Z,101321.56
2024-02-15T07:26:17.943Z,101329.06
2024-02-15T07:28:47.413Z,101327.03
2024-02-15T07:31:15.896Z,101324.06
2024-02-15T07:33:44.630Z,101319.28
2024-02-15T07:36:12.212Z,101326.22
2024-02-15T07:38:39.533Z,101326.22
2024-02-15T07:41:06.855Z,101335.75
2024-02-15T07:43:34.713Z,101325.88
2024-02-15T07:46:02.130Z,101328.06
2024-02-15T07:48:29.795Z,101332.97
2024-02-15T07:50:59.638Z,101339.00
2024-02-15T07:53:27.044Z,101337.13
2024-02-15T07:55:54.302Z,101339.81
2024-02-15T07:58:22.265Z,101349.28
2024-02-15T08:00:49.633Z,101351.81
2024-02-15T08:03:19.447Z,101350.34
2024-02-15T08:05:46.906Z,101350.28
2024-02-15T08:08:14.259Z,101351.94
2024-02-15T08:10:43.261Z,101345.50
2024-02-15T08:13:10.574Z,101359.41
2024-02-15T08:15:37.827Z,101353.19
2024-02-15T08:18:07.296Z,101353.53
2024-02-15T08:20:35.887Z,101369.78
2024-02-15T08:23:03.508Z,101356.97
2024-02-15T08:25:32.593Z,101358.72
2024-02-15T08:27:59.924Z,101360.72
2024-02-15T08:30:29.017Z,101353.94
2024-02-15T08:32:56.667Z,101357.81
2024-02-15T08:35:24.342Z,101358.47
2024-02-15T08:37:54.077Z,101370.78
2024-02-15T08:40:26.222Z,101361.84
2024-02-15T08:42:53.862Z,101361.44
2024-02-15T08:45:21.740Z,101366.50
2024-02-15T08:47:51.309Z,101359.84
2024-02-15T08:50:19.086Z,101366.63
2024-02-15T08:52:48.153Z,101360.91
2024-02-15T08:55:16.043Z,101357.97
2024-02-15T08:57:45.406Z,101361.66
2024-02-15T09:00:17.616Z,101363.41
2024-02-15T09:02:45.991Z,101360.22
2024-02-15T09:05:16.568Z,101357.84
2024-02-15T09:07:44.778Z,101365.31
2024-02-15T09:10:12.715Z,101363.34
2024-02-15T09:12:41.254Z,101354.94
2024-02-15T09:15:09.479Z,101359.66
2024-02-15T09:17:43.079Z,101364.47
2024-02-15T09:20:15.941Z,101361.97
2024-02-15T09:22:44.241Z,101373.91
2024-02-15T09:25:11.840Z,101365.47
2024-02-15T09:27:39.158Z,101365.75
2024-02-15T09:30:10.924Z,101364.25
2024-02-15T09:32:38.550Z,101370.84
2024-02-15T09:35:10.184Z,101366.78
2024-02-15T09:37:41.043Z,101364.94
2024-02-15T09:40:13.121Z,101377.53
2024-02-15T09:42:41.688Z,101380.94
2024-02-15T09:45:14.172Z,101375.97
2024-02-15T09:47:42.341Z,101375.47
2024-02-15T09:50:17.659Z,101373.41
2024-02-15T09:52:45.873Z,101364.06
2024-02-15T09:55:14.592Z,101370.13
2024-02-15T09:57:43.455Z,101369.09
2024-02-15T10:00:15.020Z,101359.41
2024-02-15T10:02:46.049Z,101366.59
2024-02-15T10:05:14.086Z,101372.22
2024-02-15T10:07:45.873Z,101364.25
2024-02-15T10:10:20.286Z,101364.84
2024-02-15T10:12:57.685Z,101367.38
2024-02-15T10:15:46.269Z,101370.72
2024-02-15T10:18:14.421Z,101370.09
2024-02-15T10:20:46.238Z,101369.53
2024-02-15T10:23:19.956Z,101374.22
2024-02-15T10:25:48.552Z,101372.59
2024-02-15T10:28:21.221Z,101382.53
2024-02-15T10:30:50.098Z,101366.44
2024-02-15T10:33:22.093Z,101374.31
2024-02-15T10:35:49.535Z,101370.84
2024-02-15T10:38:19.401Z,101369.06
2024-02-15T10:40:48.080Z,101382.16
2024-02-15T10:43:17.920Z,101375.66
2024-02-15T10:45:46.203Z,101382.84
2024-02-15T10:48:14.778Z,101378.69
2024-02-15T10:50:43.577Z,101379.41
2024-02-15T10:53:27.656Z,101389.09
2024-02-15T10:56:01.217Z,101383.91
2024-02-15T10:58:33.319Z,101381.56
2024-02-15T11:01:00.808Z,101389.31
2024-02-15T11:03:32.543Z,101383.88
2024-02-15T11:06:02.284Z,101375.13
2024-02-15T11:08:30.015Z,101387.72
2024-02-15T11:11:00.333Z,101373.56
2024-02-15T11:13:28.647Z,101379.06
2024-02-15T11:15:55.862Z,101378.28
2024-02-15T11:18:41.835Z,101374.00
2024-02-15T11:21:09.252Z,101377.38
2024-02-15T11:23:37.487Z,101379.19
2024-02-15T11:26:06.329Z,101384.47
2024-02-15T11:28:35.290Z,101378.47
2024-02-15T11:31:04.396Z,101391.53
2024-02-15T11:33:38.598Z,101390.91
2024-02-15T11:36:11.165Z,101380.81
2024-02-15T11:38:42.484Z,101385.09
2024-02-15T11:41:11.868Z,101394.69
2024-02-15T11:43:58.669Z,101393.69
2024-02-15T11:46:26.944Z,101395.97
2024-02-15T11:48:58.103Z,101400.25
2024-02-15T11:51:26.787Z,101391.00
2024-02-15T11:54:07.213Z,101407.13
2024-02-15T11:56:53.191Z,101401.72
2024-02-15T11:59:30.690Z,101405.53
2024-02-15T12:02:16.668Z,101411.41
2024-02-15T12:05:03.118Z,101409.41
2024-02-15T12:07:49.283Z,101416.63
2024-02-15T12:10:36.253Z,101413.44
2024-02-15T12:13:22.524Z,101406.09
2024-02-15T12:16:18.023Z,101412.44
2024-02-15T12:18:47.536Z,101405.25
2024-02-15T12:21:18.481Z,101400.56
2024-02-15T12:23:47.001Z,101398.69
2024-02-15T12:26:15.924Z,101401.50
2024-02-15T12:28:46.478Z,101395.94
2024-02-15T12:31:15.865Z,101404.59
2024-02-15T12:33:43.482Z,101405.63
2024-02-15T12:36:11.198Z,101417.53
2024-02-15T12:38:39.582Z,101414.47
2024-02-15T12:41:22.370Z,101419.25
2024-02-15T12:43:55.866Z,101419.19
2024-02-15T12:46:23.582Z,101418.78
2024-02-15T12:48:51.237Z,101412.47
2024-02-15T12:51:19.402Z,101420.47
2024-02-15T12:53:47.021Z,101414.34
2024-02-15T12:56:21.065Z,101419.16
2024-02-15T12:58:48.366Z,101414.84
2024-02-15T13:01:15.631Z,101418.94
2024-02-15T13:03:43.064Z,101418.56
2024-02-15T13:06:10.401Z,101415.75
2024-02-15T13:08:37.783Z,101412.75
2024-02-15T13:11:05.305Z,101419.13
2024-02-15T13:13:32.753Z,101412.16
2024-02-15T13:16:00.276Z,101411.19
2024-02-15T13:18:29.818Z,101415.38
2024-02-15T13:20:59.119Z,101423.38
2024-02-15T13:23:27.282Z,101420.47
2024-02-15T13:25:57.943Z,101433.22
2024-02-15T13:28:26.216Z,101427.47
2024-02-15T13:30:55.874Z,101429.06
2024-02-15T13:33:23.801Z,101431.75
2024-02-15T13:35:51.518Z,101435.50
2024-02-15T13:38:25.069Z,101433.97
2024-02-15T13:40:55.699Z,101436.84
2024-02-15T13:43:22.988Z,101427.19
2024-02-15T13:45:50.405Z,101435.81
2024-02-15T13:48:18.245Z,101438.91
2024-02-15T13:50:46.394Z,101443.69
2024-02-15T13:53:15.391Z,101432.44
2024-02-15T13:55:42.936Z,101437.75
2024-02-15T13:58:14.101Z,101435.81
2024-02-15T14:00:43.909Z,101432.38
2024-02-15T14:03:12.464Z,101432.75
2024-02-15T14:05:42.778Z,101435.50
2024-02-15T14:08:13.415Z,101429.88
2024-02-15T14:10:40.744Z,101435.19
2024-02-15T14:13:12.817Z,101444.16
2024-02-15T14:15:41.052Z,101437.75
2024-02-15T14:18:14.829Z,101430.66
2024-02-15T14:20:45.678Z,101434.31
2024-02-15T14:23:16.434Z,101434.41
2024-02-15T14:25:44.214Z,101439.94
2024-02-15T14:28:11.720Z,101443.13
2024-02-15T14:30:59.038Z,101445.13
2024-02-15T14:33:33.427Z,101438.47
2024-02-15T14:36:02.572Z,101437.97
2024-02-15T14:38:30.802Z,101440.44
2024-02-15T14:41:01.028Z,101431.72
2024-02-15T14:43:29.891Z,101437.69
2024-02-15T14:45:58.416Z,101445.19
2024-02-15T14:48:27.059Z,101442.28
2024-02-15T14:50:55.104Z,101433.78
2024-02-15T14:53:23.829Z,101434.22
2024-02-15T14:55:53.040Z,101436.72
2024-02-15T14:58:21.282Z,101435.69
2024-02-15T15:00:49.253Z,101448.31
2024-02-15T15:03:18.246Z,101437.22
2024-02-15T15:06:04.995Z,101440.63
2024-02-15T15:08:51.631Z,101444.00
2024-02-15T15:11:38.190Z,101442.03
2024-02-15T15:14:06.403Z,101440.22
2024-02-15T15:16:35.438Z,101440.44
2024-02-15T15:19:03.762Z,101438.03
2024-02-15T15:21:31.387Z,101431.06
2024-02-15T15:23:58.845Z,101444.53
2024-02-15T15:26:26.373Z,101439.53
2024-02-15T15:28:53.735Z,101445.13
2024-02-15T15:31:21.682Z,101445.06
2024-02-15T15:33:53.990Z,101449.63
2024-02-15T15:36:23.379Z,101445.06
2024-02-15T15:38:51.616Z,101450.41
2024-02-15T15:41:19.842Z,101449.13
2024-02-15T15:43:47.617Z,101450.06
2024-02-15T15:46:16.084Z,101452.56
2024-02-15T15:48:45.054Z,101449.44
2024-02-15T15:51:13.845Z,101458.22
2024-02-15T15:53:41.711Z,101460.59
2024-02-15T15:56:09.277Z,101461.41
2024-02-15T15:58:36.888Z,101461.22
2024-02-15T16:01:05.644Z,101460.91
2024-02-15T16:03:33.628Z,101464.72
2024-02-15T16:06:01.319Z,101471.22
2024-02-15T16:08:28.745Z,101485.16
2024-02-15T16:10:58.168Z,101484.34
2024-02-15T16:13:27.097Z,101481.19
2024-02-15T16:15:56.239Z,101484.91
2024-02-15T16:18:25.050Z,101487.09
2024-02-15T16:20:55.115Z,101480.44
2024-02-15T16:23:24.088Z,101476.59
2024-02-15T16:25:54.659Z,101481.59
2024-02-15T16:28:21.958Z,101488.88
2024-02-15T16:30:49.908Z,101489.16
2024-02-15T16:33:17.597Z,101493.09
2024-02-15T16:35:47.183Z,101494.69
2024-02-15T16:38:17.469Z,101493.34
2024-02-15T16:40:44.817Z,101492.22
2024-02-15T16:43:12.128Z,101492.97
2024-02-15T16:45:40.809Z,101502.63
2024-02-15T16:48:08.526Z,101501.09
2024-02-15T16:50:36.723Z,101495.41
2024-02-15T16:53:04.399Z,101503.72
2024-02-15T16:55:33.489Z,101501.44
2024-02-15T16:58:04.931Z,101499.56
2024-02-15T17:00:33.709Z,101495.09
2024-02-15T17:03:01.927Z,101497.69
2024-02-15T17:05:29.849Z,101498.47
2024-02-15T17:07:57.700Z,101504.00
2024-02-15T17:10:28.650Z,101499.16
2024-02-15T17:12:56.112Z,101500.41
2024-02-15T17:15:27.969Z,101497.50
2024-02-15T17:17:56.382Z,101494.44
2024-02-15T17:20:26.994Z,101508.22
2024-02-15T17:22:54.970Z,101501.03
2024-02-15T17:25:26.653Z,101504.63
2024-02-15T17:27:57.037Z,101505.13
2024-02-15T17:30:25.560Z,101494.44
2024-02-15T17:32:53.928Z,101498.06
2024-02-15T17:35:22.720Z,101491.38
2024-02-15T17:37:50.656Z,101490.91
2024-02-15T17:40:38.987Z,101494.38
2024-02-15T17:43:33.383Z,101497.06
2024-02-15T17:46:05.967Z,101491.00
2024-02-15T17:48:48.517Z,101494.16
2024-02-15T17:51:18.995Z,101486.03
2024-02-15T17:53:47.646Z,101488.06
2024-02-15T17:56:17.895Z,101497.63
2024-02-15T17:58:48.977Z,101494.16
2024-02-15T18:01:16.935Z,101503.28
2024-02-15T18:03:56.126Z,101493.59
2024-02-15T18:06:26.514Z,101491.44
2024-02-15T18:08:56.884Z,101497.97
2024-02-15T18:11:45.835Z,101498.38
2024-02-15T18:14:28.207Z,101498.16
2024-02-15T18:16:55.524Z,101498.78
2024-02-15T18:19:23.116Z,101501.50
2024-02-15T18:21:59.903Z,101501.03
2024-02-15T18:24:37.278Z,101505.25
2024-02-15T18:27:05.034Z,101506.44
2024-02-15T18:29:35.232Z,101506.91
2024-02-15T18:32:12.033Z,101502.22
2024-02-15T18:34:39.398Z,101499.91
2024-02-15T18:37:08.360Z,101501.84
2024-02-15T18:39:35.694Z,101512.22
2024-02-15T18:42:12.167Z,101511.63
2024-02-15T18:44:39.605Z,101504.53
2024-02-15T18:47:06.861Z,101509.97
2024-02-15T18:49:36.947Z,101511.56
2024-02-15T18:52:08.390Z,101500.00
2024-02-15T18:54:38.971Z,101513.03
2024-02-15T18:57:06.517Z,101512.19
2024-02-15T18:59:35.731Z,101512.94
2024-02-15T19:02:36.421Z,101518.34
2024-02-15T19:05:12.732Z,101515.91
2024-02-15T19:07:48.499Z,101505.66
2024-02-15T19:10:34.360Z,101506.25
2024-02-15T19:13:05.071Z,101503.97
2024-02-15T19:15:33.632Z,101499.69
2024-02-15T19:18:05.262Z,101496.75
2024-02-15T19:20:34.447Z,101500.72
2024-02-15T19:23:01.791Z,101507.31
2024-02-15T19:25:29.145Z,101496.56
2024-02-15T19:27:59.465Z,101498.09
2024-02-15T19:30:32.851Z,101500.38
2024-02-15T19:33:00.347Z,101498.66
2024-02-15T19:35:28.022Z,101501.69
2024-02-15T19:38:10.692Z,101506.63
2024-02-15T19:40:43.288Z,101498.06
2024-02-15T19:43:22.785Z,101498.84
2024-02-15T19:45:57.034Z,101492.84
2024-02-15T19:48:24.930Z,101505.31
2024-02-15T19:50:52.330Z,101499.31
2024-02-15T19:53:22.374Z,101496.25
2024-02-15T19:55:50.904Z,101507.06
2024-02-15T19:58:36.685Z,101503.47
2024-02-15T20:01:04.127Z,101506.03
2024-02-15T20:03:33.390Z,101504.75
2024-02-15T20:06:01.143Z,101497.66
2024-02-15T20:08:29.613Z,101495.28
2024-02-15T20:10:57.514Z,101501.31
2024-02-15T20:13:25.042Z,101505.13
2024-02-15T20:15:54.534Z,101496.44
2024-02-15T20:18:22.187Z,101502.75
2024-02-15T20:20:50.231Z,101503.72
2024-02-15T20:23:17.654Z,101500.03
2024-02-15T20:25:47.853Z,101498.03
2024-02-15T20:28:15.285Z,101501.03
2024-02-15T20:30:43.723Z,101511.50
2024-02-15T20:33:15.755Z,101509.69
2024-02-15T20:35:43.486Z,101500.59
2024-02-15T20:38:11.150Z,101505.72
2024-02-15T20:40:38.747Z,101502.53
2024-02-15T20:43:06.793Z,101507.31
2024-02-15T20:45:34.091Z,101510.53
2024-02-15T20:48:01.501Z,101508.22
2024-02-15T20:50:30.686Z,101503.22
2024-02-15T20:52:58.254Z,101512.31
2024-02-15T20:55:25.603Z,101510.31
2024-02-15T20:57:53.288Z,101519.13
2024-02-15T21:00:20.644Z,101514.88
2024-02-15T21:02:48.109Z,101514.63
2024-02-15T21:05:15.582Z,101516.91
2024-02-15T21:07:43.398Z,101516.72
2024-02-15T21:10:13.782Z,101513.78
2024-02-15T21:12:41.374Z,101519.22
2024-02-15T21:15:10.873Z,101514.53
2024-02-15T21:17:40.117Z,101521.47
2024-02-15T21:20:13.325Z,101523.22
2024-02-15T21:22:40.888Z,101523.50
2024-02-15T21:25:08.206Z,101518.72
2024-02-15T21:27:35.544Z,101513.22
2024-02-15T21:30:06.034Z,101516.81
2024-02-15T21:32:36.382Z,101520.34
2024-02-15T21:35:04.341Z,101519.44
2024-02-15T21:37:32.886Z,101519.25
2024-02-15T21:40:00.283Z,101518.91
2024-02-15T21:42:28.124Z,101514.63
2024-02-15T21:44:56.361Z,101518.53
2024-02-15T21:47:23.741Z,101513.78
2024-02-15T21:49:51.483Z,101521.72
2024-02-15T21:52:19.006Z,101517.25
2024-02-15T21:54:46.492Z,101514.88
2024-02-15T21:57:15.919Z,101516.88
2024-02-15T21:59:43.193Z,101520.38
2024-02-15T22:02:12.574Z,101518.22
2024-02-15T22:04:40.048Z,101517.63
2024-02-15T22:07:08.692Z,101509.44
2024-02-15T22:09:39.067Z,101511.16
2024-02-15T22:12:07.593Z,101519.44
2024-02-15T22:14:35.067Z,101507.44
2024-02-15T22:17:02.647Z,101518.34
2024-02-15T22:19:30.055Z,101520.56
2024-02-15T22:21:57.859Z,101519.44
2024-02-15T22:24:25.258Z,101514.16
2024-02-15T22:26:52.757Z,101515.81
2024-02-15T22:29:19.967Z,101517.59
2024-02-15T22:31:47.286Z,101517.59
2024-02-15T22:34:15.890Z,101517.09
2024-02-15T22:36:43.334Z,101521.72
2024-02-15T22:39:11.719Z,101526.53
2024-02-15T22:41:39.248Z,101524.84
2024-02-15T22:44:06.526Z,101530.41
2024-02-15T22:46:33.947Z,101530.66
2024-02-15T22:49:01.487Z,101532.44
2024-02-15T22:51:29.243Z,101534.53
2024-02-15T22:53:56.581Z,101530.63
2024-02-15T22:56:24.116Z,101532.25
2024-02-15T22:58:51.365Z,101537.66
2024-02-15T23:01:18.659Z,101543.75
2024-02-15T23:03:46.134Z,101542.53
2024-02-15T23:06:13.709Z,101542.75
2024-02-15T23:08:41.241Z,101533.56
2024-02-15T23:11:08.665Z,101537.25
2024-02-15T23:13:37.397Z,101546.22
2024-02-15T23:16:05.674Z,101535.03
2024-02-15T23:18:33.082Z,101544.03
2024-02-15T23:21:00.711Z,101540.94
2024-02-15T23:23:28.119Z,101538.44
2024-02-15T23:25:55.470Z,101538.84
2024-02-15T23:28:22.703Z,101544.22
2024-02-15T23:30:50.662Z,101529.16
2024-02-15T23:33:21.025Z,101522.34
2024-02-15T23:36:08.795Z,101524.44
2024-02-15T23:38:55.064Z,101528.63
2024-02-15T23:41:22.613Z,101525.13
2024-02-15T23:43:50.475Z,101521.03
2024-02-15T23:46:17.701Z,101529.25
2024-02-15T23:48:45.373Z,101523.94
2024-02-15T23:51:12.824Z,101516.63
2024-02-15T23:53:41.484Z,101518.44
2024-02-15T23:56:09.858Z,101519.22
2024-02-15T23:58:37.383Z,101507.31
